Time;durP1;ratioP1;P1;durP2;ratioP2;P2;SDS_P1;SDS_P2;PMS_P1;PMS_P2;Temp;Humidity;BMP_temperature;BMP_pressure;BME280_temperature;BME280_humidity;BME280_pressure;Samples;Min_cycle;Max_cycle;Signal;HPM_P1;HPM_P2
2022/11/10 00:00:20;;;;;;;;;;;9.30;99.90;;;;;;5119022;27;1973;-67
2022/11/10 00:03:06;;;;;;;;;;;9.20;99.90;;;;;;5119306;27;1027;-67
2022/11/10 00:05:50;;;;;;;;;;;9.20;99.90;;;;;;5118965;27;1444;-67
2022/11/10 00:08:34;;;;;;;;;;;9.20;99.90;;;;;;5119272;27;941;-67
2022/11/10 00:11:18;;;;;;;;;;;9.20;99.90;;;;;;5118734;27;1361;-67
2022/11/10 00:17:05;;;;;;;;;;;9.10;99.90;;;;;;5118509;27;1232;-67
2022/11/10 00:19:49;;;;;;;;;;;9.10;99.90;;;;;;5119266;27;1917;-67
2022/11/10 00:22:34;;;;;;;;;;;9.10;99.90;;;;;;5117398;27;1085;-67
2022/11/10 00:25:18;;;;;;;;;;;9.20;99.90;;;;;;5119033;27;1029;-67
2022/11/10 00:28:02;;;;;;;;;;;9.10;99.90;;;;;;5117869;27;1240;-67
2022/11/10 00:30:46;;;;;;;;;;;9.10;99.90;;;;;;5117957;27;1186;-67
2022/11/10 00:33:32;;;;;;;;;;;9.10;99.90;;;;;;5118478;27;980;-67
2022/11/10 00:36:16;;;;;;;;;;;9.00;99.90;;;;;;5118457;27;981;-67
2022/11/10 00:39:01;;;;;;;;;;;9.00;99.90;;;;;;5118654;27;1970;-67
2022/11/10 00:41:45;;;;;;;;;;;8.90;99.90;;;;;;5103394;28;995;-67
2022/11/10 00:44:29;;;;;;;;;;;8.90;99.90;;;;;;5102834;27;1034;-67
2022/11/10 00:47:13;;;;;;;;;;;8.90;99.90;;;;;;5117836;27;1066;-67
2022/11/10 00:49:57;;;;;;;;;;;8.90;99.90;;;;;;5118310;28;989;-67
2022/11/10 00:52:41;;;;;;;;;;;8.90;99.90;;;;;;5118546;28;1080;-67
2022/11/10 00:55:25;;;;;;;;;;;9.00;99.90;;;;;;5120776;27;1068;-67
2022/11/10 00:58:09;;;;;;;;;;;8.90;99.90;;;;;;5122090;27;1917;-67
2022/11/10 01:01:02;;;;;;;;;;;9.00;99.90;;;;;;5123662;27;1052;-67
2022/11/10 01:03:47;;;;;;;;;;;8.90;99.90;;;;;;5122089;27;1472;-67
2022/11/10 01:06:31;;;;;;;;;;;8.90;99.90;;;;;;5121923;27;1059;-67
2022/11/10 01:09:15;;;;;;;;;;;8.90;99.90;;;;;;5103452;27;1036;-67
2022/11/10 01:12:00;;;;;;;;;;;8.90;99.90;;;;;;5122195;27;1234;-66
2022/11/10 01:14:45;;;;;;;;;;;9.00;99.90;;;;;;5122009;27;999;-67
2022/11/10 01:17:30;;;;;;;;;;;9.00;99.90;;;;;;5120831;27;1298;-67
2022/11/10 01:20:14;;;;;;;;;;;9.00;99.90;;;;;;5122556;27;1917;-67
2022/11/10 01:22:58;;;;;;;;;;;9.10;99.90;;;;;;5121748;27;1211;-67
2022/11/10 01:25:42;;;;;;;;;;;9.10;99.90;;;;;;5120881;27;1032;-67
2022/11/10 01:28:27;;;;;;;;;;;9.10;99.90;;;;;;5122067;27;1159;-67
2022/11/10 01:31:18;;;;;;;;;;;9.00;99.90;;;;;;5121371;27;1290;-67
2022/11/10 01:34:02;;;;;;;;;;;9.00;99.90;;;;;;5121683;27;1184;-67
2022/11/10 01:36:46;;;;;;;;;;;9.00;99.90;;;;;;5122528;27;1127;-67
2022/11/10 01:39:30;;;;;;;;;;;8.90;99.90;;;;;;5120519;27;1906;-67
2022/11/10 01:42:15;;;;;;;;;;;8.90;99.90;;;;;;5122956;27;1179;-67
2022/11/10 01:45:18;;;;;;;;;;;8.90;99.90;;;;;;5122016;27;1032;-67
2022/11/10 01:48:04;;;;;;;;;;;8.90;99.90;;;;;;5121506;27;1264;-67
2022/11/10 01:50:49;;;;;;;;;;;9.00;99.90;;;;;;5121395;27;1003;-67
2022/11/10 01:53:35;;;;;;;;;;;8.90;99.90;;;;;;5111689;27;1158;-67
2022/11/10 01:56:19;;;;;;;;;;;9.00;99.90;;;;;;5107322;27;1155;-67
2022/11/10 01:59:06;;;;;;;;;;;9.00;99.90;;;;;;5107980;27;1941;-67
2022/11/10 02:01:52;;;;;;;;;;;9.00;99.90;;;;;;5107963;27;1045;-67
2022/11/10 02:04:36;;;;;;;;;;;8.90;99.90;;;;;;5103100;28;1326;-67
2022/11/10 02:07:21;;;;;;;;;;;9.00;99.90;;;;;;5102448;28;1077;-67
2022/11/10 02:10:12;;;;;;;;;;;9.00;99.90;;;;;;5104465;27;1087;-67
2022/11/10 02:12:56;;;;;;;;;;;8.90;99.90;;;;;;5106266;27;1298;-67
2022/11/10 02:15:40;;;;;;;;;;;8.90;99.90;;;;;;5105117;27;1030;-67
2022/11/10 02:18:25;;;;;;;;;;;8.90;99.90;;;;;;5103695;27;1933;-67
2022/11/10 02:21:09;;;;;;;;;;;8.90;99.90;;;;;;5104413;27;1071;-67
2022/11/10 02:23:53;;;;;;;;;;;8.90;99.90;;;;;;5105314;27;1044;-67
2022/11/10 02:26:41;;;;;;;;;;;8.90;99.90;;;;;;5108099;27;879;-67
2022/11/10 02:29:25;;;;;;;;;;;8.90;99.90;;;;;;5105688;27;980;-67
2022/11/10 02:32:09;;;;;;;;;;;8.90;99.90;;;;;;5107291;27;970;-67
2022/11/10 02:34:53;;;;;;;;;;;8.80;99.90;;;;;;5106651;27;1087;-67
2022/11/10 02:37:38;;;;;;;;;;;8.80;99.90;;;;;;5087472;27;2394;-67
2022/11/10 02:40:22;;;;;;;;;;;8.80;99.90;;;;;;5108648;27;1925;-67
2022/11/10 02:43:09;;;;;;;;;;;8.70;99.90;;;;;;5102830;27;1037;-67
2022/11/10 02:45:53;;;;;;;;;;;8.80;99.90;;;;;;5105108;27;1048;-67
2022/11/10 02:48:37;;;;;;;;;;;8.80;99.90;;;;;;5107096;27;1024;-67
2022/11/10 02:51:21;;;;;;;;;;;8.80;99.90;;;;;;5103957;27;969;-67
2022/11/10 02:54:06;;;;;;;;;;;8.80;99.90;;;;;;5120981;27;1029;-67
2022/11/10 02:56:50;;;;;;;;;;;8.80;99.90;;;;;;5120339;27;996;-67
2022/11/10 02:59:33;;;;;;;;;;;8.80;99.90;;;;;;5120121;27;1917;-67
2022/11/10 03:02:17;;;;;;;;;;;8.80;99.90;;;;;;5120845;27;1016;-67
2022/11/10 03:05:02;;;;;;;;;;;8.70;99.90;;;;;;5118738;27;1527;-67
2022/11/10 03:07:55;;;;;;;;;;;8.70;99.90;;;;;;5120822;27;969;-67
2022/11/10 03:10:39;;;;;;;;;;;8.80;99.90;;;;;;5120122;27;1019;-67
2022/11/10 03:13:24;;;;;;;;;;;8.70;99.90;;;;;;5119946;27;1527;-67
2022/11/10 03:16:09;;;;;;;;;;;8.70;99.90;;;;;;5119604;27;1245;-67
2022/11/10 03:18:52;;;;;;;;;;;8.80;99.90;;;;;;5118524;27;1969;-67
2022/11/10 03:21:36;;;;;;;;;;;8.80;99.90;;;;;;5120413;27;1071;-67
2022/11/10 03:24:21;;;;;;;;;;;8.70;99.90;;;;;;5101127;27;976;-67
2022/11/10 03:27:05;;;;;;;;;;;8.70;99.90;;;;;;5119442;27;1008;-67
2022/11/10 03:29:49;;;;;;;;;;;8.70;99.90;;;;;;5119842;27;1346;-67
2022/11/10 03:32:33;;;;;;;;;;;8.70;99.90;;;;;;5119064;27;1091;-67
2022/11/10 03:35:17;;;;;;;;;;;9.00;99.90;;;;;;5119708;27;1360;-67
2022/11/10 03:38:02;;;;;;;;;;;8.70;99.90;;;;;;5119217;27;1059;-67
2022/11/10 03:40:48;;;;;;;;;;;8.80;99.90;;;;;;5120307;27;1075;-66
2022/11/10 03:43:32;;;;;;;;;;;8.80;99.90;;;;;;5119257;27;997;-67
2022/11/10 03:46:17;;;;;;;;;;;8.80;99.90;;;;;;5119096;27;1058;-67
2022/11/10 03:49:01;;;;;;;;;;;8.80;99.90;;;;;;5119940;27;1051;-67
2022/11/10 03:51:46;;;;;;;;;;;8.80;99.90;;;;;;5117699;27;1198;-66
2022/11/10 03:54:30;;;;;;;;;;;8.80;99.90;;;;;;5091964;27;1015;-67
2022/11/10 03:57:14;;;;;;;;;;;8.80;99.90;;;;;;5109060;27;1029;-67
2022/11/10 03:59:59;;;;;;;;;;;9.30;99.90;;;;;;5103119;27;1963;-67
2022/11/10 04:02:43;;;;;;;;;;;8.80;99.90;;;;;;5103450;27;1071;-66
2022/11/10 04:17:39;;;;;;;;;;;8.80;99.90;;;;;;5108752;27;1236;-67
2022/11/10 04:20:23;;;;;;;;;;;8.80;99.90;;;;;;5101955;27;1971;-67
2022/11/10 04:23:25;;;;;;;;;;;8.80;99.90;;;;;;5102927;27;1016;-67
2022/11/10 04:26:27;;;;;;;;;;;8.80;99.90;;;;;;5104834;27;1119;-67
2022/11/10 04:29:12;;;;;;;;;;;8.80;99.90;;;;;;5101152;27;1063;-67
2022/11/10 04:31:56;;;;;;;;;;;8.80;99.90;;;;;;5109194;27;1602;-67
2022/11/10 04:34:40;;;;;;;;;;;8.80;99.90;;;;;;5104466;27;946;-67
2022/11/10 04:37:24;;;;;;;;;;;8.70;99.90;;;;;;5098338;28;1099;-67
2022/11/10 04:40:09;;;;;;;;;;;8.80;99.90;;;;;;5107849;27;1921;-67
2022/11/10 04:42:53;;;;;;;;;;;8.70;99.90;;;;;;5101238;27;1075;-67
2022/11/10 04:45:37;;;;;;;;;;;8.70;99.90;;;;;;5107897;27;1113;-67
2022/11/10 04:48:21;;;;;;;;;;;8.70;99.90;;;;;;5101989;28;972;-67
2022/11/10 04:51:06;;;;;;;;;;;8.70;99.90;;;;;;5105232;27;992;-67
2022/11/10 04:53:50;;;;;;;;;;;8.80;99.90;;;;;;5104293;28;1016;-67
2022/11/10 04:56:34;;;;;;;;;;;8.80;99.90;;;;;;5108521;28;1196;-67
2022/11/10 04:59:18;;;;;;;;;;;8.80;99.90;;;;;;5103286;28;1914;-66
2022/11/10 05:02:02;;;;;;;;;;;8.90;99.90;;;;;;5104481;28;1280;-67
2022/11/10 05:04:46;;;;;;;;;;;8.90;99.90;;;;;;5105371;28;1377;-67
2022/11/10 05:07:31;;;;;;;;;;;8.90;99.90;;;;;;5106569;28;868;-67
2022/11/10 05:10:15;;;;;;;;;;;9.00;99.90;;;;;;5098459;28;1025;-67
2022/11/10 05:12:59;;;;;;;;;;;8.90;99.90;;;;;;5102858;28;1446;-67
2022/11/10 05:15:44;;;;;;;;;;;9.00;99.90;;;;;;5101400;28;892;-68
2022/11/10 05:18:28;;;;;;;;;;;9.00;99.90;;;;;;5100738;28;1960;-68
2022/11/10 05:21:12;;;;;;;;;;;9.00;99.90;;;;;;5100388;28;1189;-68
2022/11/10 05:23:56;;;;;;;;;;;9.10;99.90;;;;;;5106946;28;986;-68
2022/11/10 05:26:40;;;;;;;;;;;9.10;99.90;;;;;;5105179;28;978;-68
2022/11/10 05:29:24;;;;;;;;;;;9.10;99.90;;;;;;5103404;28;1032;-67
2022/11/10 05:32:08;;;;;;;;;;;9.10;99.90;;;;;;5080529;28;982;-68
2022/11/10 05:34:53;;;;;;;;;;;9.10;99.90;;;;;;5108018;28;1008;-68
2022/11/10 05:37:38;;;;;;;;;;;9.10;99.90;;;;;;5106483;28;1102;-68
2022/11/10 05:40:22;;;;;;;;;;;9.10;99.90;;;;;;5102032;27;1922;-68
2022/11/10 05:43:07;;;;;;;;;;;9.20;99.90;;;;;;5110706;27;962;-67
2022/11/10 05:45:51;;;;;;;;;;;9.10;99.90;;;;;;5106618;27;1095;-68
2022/11/10 05:48:35;;;;;;;;;;;9.20;99.90;;;;;;5110057;27;1018;-68
2022/11/10 05:51:19;;;;;;;;;;;9.20;99.90;;;;;;5093632;27;1056;-68
2022/11/10 05:54:03;;;;;;;;;;;9.20;99.90;;;;;;5112277;27;1028;-68
2022/11/10 05:56:48;;;;;;;;;;;9.20;99.90;;;;;;5107048;27;1000;-68
2022/11/10 05:59:32;;;;;;;;;;;9.20;99.90;;;;;;5103432;27;1981;-68
2022/11/10 06:02:16;;;;;;;;;;;9.20;99.90;;;;;;5108755;27;1039;-68
2022/11/10 06:05:00;;;;;;;;;;;9.20;99.90;;;;;;5087936;27;1498;-67
2022/11/10 06:07:44;;;;;;;;;;;9.20;99.90;;;;;;5110222;27;1028;-68
2022/11/10 06:10:29;;;;;;;;;;;9.20;99.90;;;;;;5106300;27;977;-68
2022/11/10 06:13:13;;;;;;;;;;;9.20;99.90;;;;;;5105627;27;1381;-68
2022/11/10 06:15:57;;;;;;;;;;;9.30;99.90;;;;;;5107682;27;1257;-68
2022/11/10 06:18:41;;;;;;;;;;;9.30;99.90;;;;;;5088398;27;1971;-68
2022/11/10 06:21:25;;;;;;;;;;;9.30;99.90;;;;;;5104832;27;1016;-68
2022/11/10 06:24:10;;;;;;;;;;;9.30;99.90;;;;;;5105493;27;1016;-68
2022/11/10 06:26:54;;;;;;;;;;;9.30;99.90;;;;;;5106206;27;971;-68
2022/11/10 06:29:38;;;;;;;;;;;9.30;99.90;;;;;;5111541;27;1325;-68
2022/11/10 06:32:22;;;;;;;;;;;9.30;99.90;;;;;;5110252;27;1062;-68
2022/11/10 06:35:06;;;;;;;;;;;9.20;99.90;;;;;;5108678;27;1060;-68
2022/11/10 06:37:59;;;;;;;;;;;9.20;99.90;;;;;;5107414;27;1055;-68
2022/11/10 06:40:44;;;;;;;;;;;9.20;99.90;;;;;;5103562;27;1910;-68
2022/11/10 06:43:27;;;;;;;;;;;9.20;99.90;;;;;;5109921;27;962;-68
2022/11/10 06:46:12;;;;;;;;;;;9.20;99.90;;;;;;5104270;27;960;-68
2022/11/10 06:48:56;;;;;;;;;;;9.20;99.90;;;;;;5105606;27;1059;-68
2022/11/10 06:51:40;;;;;;;;;;;9.20;99.90;;;;;;5107130;27;1117;-67
2022/11/10 06:54:24;;;;;;;;;;;9.30;99.90;;;;;;5104294;27;1064;-68
2022/11/10 06:57:08;;;;;;;;;;;9.30;99.90;;;;;;5109666;27;1092;-67
2022/11/10 06:59:52;;;;;;;;;;;9.30;99.90;;;;;;5104754;27;1988;-68
2022/11/10 07:02:36;;;;;;;;;;;9.30;99.90;;;;;;5108788;27;996;-68
2022/11/10 07:05:20;;;;;;;;;;;9.20;99.90;;;;;;5108754;27;1433;-68
2022/11/10 07:08:06;;;;;;;;;;;9.30;99.90;;;;;;5090770;27;1309;-68
2022/11/10 07:10:51;;;;;;;;;;;9.30;99.90;;;;;;5103150;27;1155;-67
2022/11/10 07:13:35;;;;;;;;;;;9.40;99.90;;;;;;5105959;27;1020;-68
2022/11/10 07:16:20;;;;;;;;;;;9.40;99.90;;;;;;5105975;27;1260;-68
2022/11/10 07:19:04;;;;;;;;;;;9.40;99.90;;;;;;5102748;27;1934;-68
2022/11/10 07:21:48;;;;;;;;;;;9.40;99.90;;;;;;5109813;27;1083;-68
2022/11/10 07:24:32;;;;;;;;;;;9.50;99.90;;;;;;5104644;27;961;-68
2022/11/10 07:27:17;;;;;;;;;;;9.60;99.90;;;;;;5106146;27;1118;-68
2022/11/10 07:30:01;;;;;;;;;;;9.60;99.90;;;;;;5105689;27;1294;-68
2022/11/10 07:32:46;;;;;;;;;;;9.60;99.90;;;;;;5104574;27;1047;-68
2022/11/10 07:35:31;;;;;;;;;;;9.60;99.90;;;;;;5103229;27;1200;-68
2022/11/10 07:38:15;;;;;;;;;;;9.70;99.90;;;;;;5102502;27;1048;-68
2022/11/10 07:40:59;;;;;;;;;;;9.60;99.90;;;;;;5104426;27;961;-68
2022/11/10 07:43:43;;;;;;;;;;;9.70;99.90;;;;;;5106498;27;1040;-68
2022/11/10 07:46:27;;;;;;;;;;;9.70;99.90;;;;;;5109999;27;1050;-68
2022/11/10 07:49:11;;;;;;;;;;;9.70;99.90;;;;;;5106085;27;1068;-68
2022/11/10 07:51:56;;;;;;;;;;;9.80;99.90;;;;;;5103670;27;1243;-68
2022/11/10 07:54:40;;;;;;;;;;;9.80;99.90;;;;;;5108511;27;976;-69
2022/11/10 07:57:24;;;;;;;;;;;9.80;99.90;;;;;;5105321;27;1087;-68
2022/11/10 08:00:11;;;;;;;;;;;9.80;99.90;;;;;;5088304;28;1910;-69
2022/11/10 08:03:03;;;;;;;;;;;9.80;99.90;;;;;;5105742;27;981;-68
2022/11/10 08:05:47;;;;;;;;;;;9.80;99.90;;;;;;5105535;27;1465;-68
2022/11/10 08:08:31;;;;;;;;;;;9.80;99.90;;;;;;5104591;27;1055;-68
2022/11/10 08:11:16;;;;;;;;;;;9.80;99.90;;;;;;5101831;27;1267;-68
2022/11/10 08:14:00;;;;;;;;;;;9.90;99.90;;;;;;5108195;27;1071;-68
2022/11/10 08:16:44;;;;;;;;;;;9.90;99.90;;;;;;5105678;27;1251;-68
2022/11/10 08:19:28;;;;;;;;;;;9.90;99.90;;;;;;5103539;27;2008;-68
2022/11/10 08:22:13;;;;;;;;;;;10.00;99.90;;;;;;5108301;27;1041;-68
2022/11/10 08:24:57;;;;;;;;;;;10.00;99.90;;;;;;5102554;27;1020;-68
2022/11/10 08:27:41;;;;;;;;;;;10.00;99.90;;;;;;5106630;27;1030;-68
2022/11/10 08:30:26;;;;;;;;;;;10.00;99.90;;;;;;5104589;27;1361;-68
2022/11/10 08:33:12;;;;;;;;;;;10.00;99.90;;;;;;5104921;27;946;-68
2022/11/10 08:35:55;;;;;;;;;;;10.10;99.90;;;;;;5101895;27;1363;-68
2022/11/10 08:38:39;;;;;;;;;;;10.10;99.90;;;;;;5105836;27;1922;-68
2022/11/10 08:41:23;;;;;;;;;;;10.10;99.90;;;;;;5099380;27;1051;-68
2022/11/10 08:44:08;;;;;;;;;;;10.10;99.90;;;;;;5092999;27;1049;-68
2022/11/10 08:46:52;;;;;;;;;;;9.60;99.90;;;;;;5105020;27;1137;-68
2022/11/10 08:49:36;;;;;;;;;;;10.40;99.90;;;;;;5103881;28;1203;-68
2022/11/10 08:52:20;;;;;;;;;;;10.50;99.90;;;;;;5104646;28;1332;-69
2022/11/10 08:55:04;;;;;;;;;;;10.60;99.90;;;;;;5101786;28;1194;-69
2022/11/10 08:57:49;;;;;;;;;;;10.60;99.90;;;;;;5106969;28;1059;-69
2022/11/10 09:00:33;;;;;;;;;;;10.60;99.90;;;;;;5101350;28;1906;-69
2022/11/10 09:03:19;;;;;;;;;;;10.60;99.90;;;;;;5104350;28;1047;-69
2022/11/10 09:06:03;;;;;;;;;;;10.70;99.90;;;;;;5108216;28;1020;-69
2022/11/10 09:08:47;;;;;;;;;;;10.60;99.90;;;;;;5101176;28;987;-69
2022/11/10 09:11:31;;;;;;;;;;;10.70;99.90;;;;;;5101747;28;1270;-68
2022/11/10 09:14:15;;;;;;;;;;;10.90;99.90;;;;;;5106214;28;966;-69
2022/11/10 09:16:59;;;;;;;;;;;10.90;99.90;;;;;;5105969;27;1243;-69
2022/11/10 09:19:43;;;;;;;;;;;10.90;99.90;;;;;;5108437;27;1913;-69
2022/11/10 09:22:27;;;;;;;;;;;10.90;99.90;;;;;;5109586;27;966;-69
2022/11/10 09:25:11;;;;;;;;;;;11.00;99.90;;;;;;5106939;27;970;-68
2022/11/10 09:27:55;;;;;;;;;;;11.10;99.90;;;;;;5107696;27;1010;-68
2022/11/10 09:30:40;;;;;;;;;;;11.10;99.90;;;;;;5104677;27;1303;-69
2022/11/10 09:33:24;;;;;;;;;;;11.10;99.90;;;;;;5105558;27;1028;-69
2022/11/10 09:36:08;;;;;;;;;;;11.30;99.90;;;;;;5107131;27;1055;-69
2022/11/10 09:38:52;;;;;;;;;;;11.40;99.90;;;;;;5105084;27;1975;-69
2022/11/10 09:41:38;;;;;;;;;;;11.70;99.90;;;;;;5110610;27;1067;-69
2022/11/10 09:44:25;;;;;;;;;;;12.00;99.90;;;;;;5106024;27;3174;-69
2022/11/10 09:47:13;;;;;;;;;;;12.20;99.90;;;;;;5105156;27;3013;-69
2022/11/10 09:49:59;;;;;;;;;;;12.00;99.90;;;;;;5109675;27;3167;-69
2022/11/10 09:52:44;;;;;;;;;;;12.00;99.90;;;;;;5104705;27;1270;-69
2022/11/10 09:55:32;;;;;;;;;;;12.20;99.90;;;;;;5110109;27;1072;-69
2022/11/10 09:58:17;;;;;;;;;;;12.20;99.90;;;;;;5103657;27;1366;-69
2022/11/10 10:01:10;;;;;;;;;;;12.30;99.90;;;;;;5105005;27;1287;-69
2022/11/10 10:04:12;;;;;;;;;;;12.70;99.90;;;;;;5100454;27;3129;-69
2022/11/10 10:07:04;;;;;;;;;;;13.10;99.90;;;;;;5098172;27;1138;-70
2022/11/10 10:09:54;;;;;;;;;;;13.10;99.90;;;;;;5099853;28;1212;-69
2022/11/10 10:12:44;;;;;;;;;;;13.20;99.90;;;;;;5088624;28;1347;-69
2022/11/10 10:15:34;;;;;;;;;;;13.40;99.90;;;;;;5112271;28;1136;-69
2022/11/10 10:18:19;;;;;;;;;;;13.40;99.90;;;;;;5111697;28;977;-69
2022/11/10 10:21:16;;;;;;;;;;;13.40;99.90;;;;;;5111247;28;1116;-69
2022/11/10 10:24:01;;;;;;;;;;;13.10;99.90;;;;;;5111650;28;1203;-69
2022/11/10 10:26:50;;;;;;;;;;;12.70;99.90;;;;;;5111054;28;1092;-69
2022/11/10 10:29:43;;;;;;;;;;;12.60;99.90;;;;;;5112202;28;1096;-69
2022/11/10 10:32:27;;;;;;;;;;;12.50;99.90;;;;;;5098841;28;1156;-69
2022/11/10 10:35:13;;;;;;;;;;;12.40;99.90;;;;;;5111199;28;1148;-68
2022/11/10 10:37:57;;;;;;;;;;;12.50;99.90;;;;;;5112021;28;1092;-68
2022/11/10 10:40:42;;;;;;;;;;;12.90;99.90;;;;;;5110533;28;1979;-68
2022/11/10 10:43:27;;;;;;;;;;;12.90;99.90;;;;;;5111792;28;1028;-67
2022/11/10 10:46:14;;;;;;;;;;;13.10;99.90;;;;;;5111476;28;1092;-68
2022/11/10 10:49:06;;;;;;;;;;;13.00;99.90;;;;;;5110826;28;1177;-67
2022/11/10 10:52:04;;;;;;;;;;;12.90;99.90;;;;;;5089785;28;1456;-67
2022/11/10 10:54:58;;;;;;;;;;;12.90;99.90;;;;;;5108393;28;1113;-68
2022/11/10 10:57:48;;;;;;;;;;;12.80;99.90;;;;;;5092374;28;2605;-68
2022/11/10 11:00:41;;;;;;;;;;;13.20;99.90;;;;;;5111388;28;1902;-67
2022/11/10 11:03:27;;;;;;;;;;;13.30;99.90;;;;;;5111106;28;1164;-68
2022/11/10 11:06:19;;;;;;;;;;;13.30;99.90;;;;;;5108966;28;1223;-68
2022/11/10 11:09:08;;;;;;;;;;;13.80;99.90;;;;;;5106634;28;1168;-67
2022/11/10 11:12:01;;;;;;;;;;;13.80;99.90;;;;;;5110777;28;1199;-70
2022/11/10 11:14:46;;;;;;;;;;;13.90;99.90;;;;;;5110121;28;1258;-69
2022/11/10 11:17:30;;;;;;;;;;;14.40;99.90;;;;;;5110385;28;1336;-69
2022/11/10 11:20:14;;;;;;;;;;;15.00;99.90;;;;;;5111093;28;1975;-68
2022/11/10 11:23:02;;;;;;;;;;;14.70;99.90;;;;;;5109921;28;1293;-68
2022/11/10 11:25:47;;;;;;;;;;;15.00;99.90;;;;;;5110864;28;1160;-68
2022/11/10 11:28:34;;;;;;;;;;;14.70;99.90;;;;;;5110905;28;1116;-68
2022/11/10 11:31:24;;;;;;;;;;;14.60;99.90;;;;;;5109630;28;1635;-68
2022/11/10 11:34:14;;;;;;;;;;;14.80;99.90;;;;;;5110134;28;1158;-69
2022/11/10 11:37:03;;;;;;;;;;;14.90;99.90;;;;;;5109686;28;1171;-68
2022/11/10 11:39:55;;;;;;;;;;;14.30;99.90;;;;;;5107262;28;1976;-68
2022/11/10 11:42:47;;;;;;;;;;;13.80;99.90;;;;;;5110255;28;1122;-68
2022/11/10 11:45:39;;;;;;;;;;;13.50;99.90;;;;;;5109323;28;1187;-68
2022/11/10 11:48:39;;;;;;;;;;;13.30;99.90;;;;;;5110638;28;1187;-68
2022/11/10 11:51:23;;;;;;;;;;;13.30;99.90;;;;;;5108750;28;1184;-68
2022/11/10 11:54:08;;;;;;;;;;;13.20;99.90;;;;;;5107202;28;1207;-68
2022/11/10 11:56:57;;;;;;;;;;;13.30;99.90;;;;;;5098867;28;1160;-68
2022/11/10 11:59:48;;;;;;;;;;;13.20;99.90;;;;;;5109813;28;1994;-68
2022/11/10 12:02:42;;;;;;;;;;;13.30;99.90;;;;;;5110105;28;1201;-68
2022/11/10 12:05:35;;;;;;;;;;;13.40;99.90;;;;;;5109424;28;1749;-67
2022/11/10 12:08:19;;;;;;;;;;;13.50;99.90;;;;;;5109734;28;1150;-69
2022/11/10 12:11:09;;;;;;;;;;;13.60;99.90;;;;;;5108161;28;2963;-68
2022/11/10 12:14:01;;;;;;;;;;;13.70;99.90;;;;;;5091244;28;1032;-69
2022/11/10 12:16:53;;;;;;;;;;;13.70;99.90;;;;;;5101035;28;1340;-68
2022/11/10 12:19:43;;;;;;;;;;;13.80;99.90;;;;;;5098413;28;1905;-69
2022/11/10 12:22:27;;;;;;;;;;;13.80;99.90;;;;;;5101697;28;3370;-69
2022/11/10 12:25:27;;;;;;;;;;;13.70;99.90;;;;;;5100932;28;3163;-68
2022/11/10 12:28:12;;;;;;;;;;;13.60;99.90;;;;;;5104931;28;3095;-68
2022/11/10 12:30:58;;;;;;;;;;;13.60;99.90;;;;;;5100279;28;1599;-68
2022/11/10 12:33:47;;;;;;;;;;;13.60;99.90;;;;;;5108794;28;1159;-69
2022/11/10 12:36:31;;;;;;;;;;;13.60;99.90;;;;;;5108825;28;1093;-69
2022/11/10 12:39:17;;;;;;;;;;;13.60;99.90;;;;;;5109180;28;1913;-69
2022/11/10 12:42:03;;;;;;;;;;;13.60;99.90;;;;;;5109446;28;3031;-69
2022/11/10 12:44:54;;;;;;;;;;;13.60;99.90;;;;;;5102515;28;1114;-69
2022/11/10 12:47:41;;;;;;;;;;;13.50;99.90;;;;;;5108872;28;1160;-68
2022/11/10 12:50:29;;;;;;;;;;;13.50;99.90;;;;;;5108862;28;1136;-69
2022/11/10 12:53:19;;;;;;;;;;;13.50;99.90;;;;;;5102423;28;1207;-69
2022/11/10 12:56:06;;;;;;;;;;;13.50;99.90;;;;;;5104704;28;1124;-68
2022/11/10 12:59:08;;;;;;;;;;;13.50;99.90;;;;;;5109069;28;1941;-68
2022/11/10 13:02:00;;;;;;;;;;;13.40;99.90;;;;;;5107721;28;1098;-68
2022/11/10 13:04:45;;;;;;;;;;;13.40;99.90;;;;;;5079697;28;1115;-68
2022/11/10 13:07:29;;;;;;;;;;;13.40;99.90;;;;;;5104265;28;1173;-68
2022/11/10 13:10:20;;;;;;;;;;;13.40;99.90;;;;;;5106068;28;1187;-69
2022/11/10 13:13:04;;;;;;;;;;;13.40;99.90;;;;;;5108440;28;1262;-69
2022/11/10 13:15:50;;;;;;;;;;;13.40;99.90;;;;;;5108324;28;1296;-68
2022/11/10 13:18:35;;;;;;;;;;;13.30;99.90;;;;;;5108506;28;1162;-68
2022/11/10 13:21:38;;;;;;;;;;;13.30;99.90;;;;;;5106604;28;1290;-68
2022/11/10 13:24:23;;;;;;;;;;;13.30;99.90;;;;;;5106993;28;1257;-69
2022/11/10 13:27:10;;;;;;;;;;;13.10;99.90;;;;;;5107803;28;1394;-68
2022/11/10 13:29:56;;;;;;;;;;;13.10;99.90;;;;;;5104796;28;1321;-68
2022/11/10 13:32:40;;;;;;;;;;;13.00;99.90;;;;;;5107057;28;1314;-68
2022/11/10 13:35:39;;;;;;;;;;;13.10;99.90;;;;;;5107430;28;1207;-69
2022/11/10 13:38:30;;;;;;;;;;;13.30;99.90;;;;;;5106784;28;1275;-69
2022/11/10 13:41:15;;;;;;;;;;;13.30;99.90;;;;;;5090422;28;1109;-69
2022/11/10 13:44:00;;;;;;;;;;;13.40;99.90;;;;;;5107948;28;1104;-69
2022/11/10 13:46:56;;;;;;;;;;;13.60;99.90;;;;;;5108514;28;1135;-69
2022/11/10 13:49:55;;;;;;;;;;;13.80;99.90;;;;;;5103612;28;3138;-68
2022/11/10 13:53:00;;;;;;;;;;;13.70;99.90;;;;;;5103021;28;3518;-69
2022/11/10 13:55:57;;;;;;;;;;;13.60;99.90;;;;;;5101094;28;1209;-69
2022/11/10 13:58:41;;;;;;;;;;;13.50;99.90;;;;;;5107655;28;1155;-69
2022/11/10 14:01:29;;;;;;;;;;;13.50;99.90;;;;;;5107838;28;1298;-69
2022/11/10 14:04:31;;;;;;;;;;;13.50;99.90;;;;;;5107316;28;1412;-69
2022/11/10 14:07:17;;;;;;;;;;;13.40;99.90;;;;;;5108974;28;1215;-69
2022/11/10 14:10:04;;;;;;;;;;;13.50;99.90;;;;;;5106120;28;2684;-68
2022/11/10 14:12:52;;;;;;;;;;;13.50;99.90;;;;;;5102311;28;1117;-69
2022/11/10 14:15:38;;;;;;;;;;;13.50;99.90;;;;;;5111852;28;1139;-69
2022/11/10 14:18:24;;;;;;;;;;;13.50;99.90;;;;;;5108022;28;1188;-68
2022/11/10 14:21:10;;;;;;;;;;;13.50;99.90;;;;;;5108695;28;1242;-69
2022/11/10 14:23:56;;;;;;;;;;;13.50;99.90;;;;;;5110491;28;1605;-69
2022/11/10 14:26:43;;;;;;;;;;;13.60;99.90;;;;;;5086661;28;1717;-69
2022/11/10 14:29:29;;;;;;;;;;;13.50;99.90;;;;;;5108831;28;1246;-69
2022/11/10 14:32:20;;;;;;;;;;;13.60;99.90;;;;;;5110208;28;1715;-69
2022/11/10 14:35:05;;;;;;;;;;;13.70;99.90;;;;;;5108565;28;1700;-69
2022/11/10 14:37:50;;;;;;;;;;;13.70;99.90;;;;;;5110595;28;1576;-69
2022/11/10 14:40:39;;;;;;;;;;;13.60;99.90;;;;;;5106945;28;1973;-69
2022/11/10 14:43:25;;;;;;;;;;;13.60;99.90;;;;;;5111240;28;1265;-69
2022/11/10 14:46:12;;;;;;;;;;;13.60;99.90;;;;;;5110653;28;1235;-69
2022/11/10 14:48:58;;;;;;;;;;;13.60;99.90;;;;;;5109812;28;1195;-69
2022/11/10 14:51:42;;;;;;;;;;;13.50;99.90;;;;;;5110876;28;1529;-69
2022/11/10 14:54:27;;;;;;;;;;;13.50;99.90;;;;;;5108917;28;1219;-68
2022/11/10 14:57:15;;;;;;;;;;;13.50;99.90;;;;;;5109737;28;1227;-69
2022/11/10 14:59:59;;;;;;;;;;;13.40;99.90;;;;;;5098193;28;1977;-69
2022/11/10 15:02:43;;;;;;;;;;;13.40;99.90;;;;;;5111201;28;1155;-68
2022/11/10 15:05:29;;;;;;;;;;;13.40;99.90;;;;;;5110756;28;1583;-68
2022/11/10 15:08:15;;;;;;;;;;;13.40;99.90;;;;;;5110303;28;1211;-69
2022/11/10 15:10:59;;;;;;;;;;;13.40;99.90;;;;;;5109530;28;1103;-69
2022/11/10 15:13:44;;;;;;;;;;;13.40;99.90;;;;;;5109997;28;1104;-69
2022/11/10 15:16:29;;;;;;;;;;;13.40;99.90;;;;;;5107199;28;3519;-69
2022/11/10 15:19:20;;;;;;;;;;;13.40;99.90;;;;;;5109533;28;3126;-69
2022/11/10 15:22:14;;;;;;;;;;;13.40;99.90;;;;;;5107815;28;2988;-69
2022/11/10 15:24:59;;;;;;;;;;;13.40;99.90;;;;;;5103189;28;1096;-69
2022/11/10 15:27:54;;;;;;;;;;;13.40;99.90;;;;;;5110488;28;1182;-69
2022/11/10 15:30:49;;;;;;;;;;;13.40;99.90;;;;;;5109820;28;1314;-69
2022/11/10 15:33:34;;;;;;;;;;;13.50;99.90;;;;;;5105987;27;1456;-69
2022/11/10 15:36:22;;;;;;;;;;;13.40;99.90;;;;;;5106684;28;2892;-69
2022/11/10 15:39:12;;;;;;;;;;;13.30;99.90;;;;;;5112126;27;1979;-69
2022/11/10 15:41:57;;;;;;;;;;;13.30;99.90;;;;;;5099901;28;1398;-69
2022/11/10 15:44:43;;;;;;;;;;;13.40;99.90;;;;;;5100333;28;1568;-68
2022/11/10 15:47:27;;;;;;;;;;;13.30;99.90;;;;;;5110259;28;1207;-69
2022/11/10 15:50:11;;;;;;;;;;;13.30;99.90;;;;;;5109224;28;1112;-69
2022/11/10 15:52:56;;;;;;;;;;;13.30;99.90;;;;;;5110108;28;1268;-69
2022/11/10 15:55:41;;;;;;;;;;;13.30;99.90;;;;;;5110531;28;1022;-69
2022/11/10 15:58:26;;;;;;;;;;;13.20;99.90;;;;;;5108715;28;1194;-68
2022/11/10 16:01:11;;;;;;;;;;;13.20;99.90;;;;;;5110155;28;1914;-69
2022/11/10 16:03:56;;;;;;;;;;;13.20;99.90;;;;;;5109297;28;1266;-69
2022/11/10 16:06:40;;;;;;;;;;;13.20;99.90;;;;;;5109688;28;1152;-68
2022/11/10 16:09:24;;;;;;;;;;;14.10;99.90;;;;;;5110137;28;1092;-68
2022/11/10 16:12:13;;;;;;;;;;;13.20;99.90;;;;;;5109067;28;1240;-68
2022/11/10 16:14:58;;;;;;;;;;;13.10;99.90;;;;;;5109880;28;1234;-68
2022/11/10 16:17:42;;;;;;;;;;;13.00;99.90;;;;;;5105063;28;1501;-68
2022/11/10 16:20:26;;;;;;;;;;;13.00;99.90;;;;;;5109745;28;1905;-68
2022/11/10 16:23:10;;;;;;;;;;;13.00;99.90;;;;;;5109818;28;1077;-68
2022/11/10 16:25:54;;;;;;;;;;;12.90;99.90;;;;;;5108170;28;1138;-68
2022/11/10 16:28:42;;;;;;;;;;;12.90;99.90;;;;;;5109546;28;1140;-68
2022/11/10 16:31:28;;;;;;;;;;;12.90;99.90;;;;;;5109955;28;1630;-68
2022/11/10 16:34:13;;;;;;;;;;;12.90;99.90;;;;;;5109294;28;1142;-68
2022/11/10 16:36:58;;;;;;;;;;;12.90;99.90;;;;;;5109754;28;1156;-68
2022/11/10 16:39:42;;;;;;;;;;;12.90;99.90;;;;;;5108697;28;1918;-68
2022/11/10 16:42:27;;;;;;;;;;;12.90;99.90;;;;;;5109170;28;1100;-68
2022/11/10 16:45:19;;;;;;;;;;;12.90;99.90;;;;;;5107599;28;1085;-68